Time;durP1;ratioP1;P1;durP2;ratioP2;P2;SDS_P1;SDS_P2;PMS_P1;PMS_P2;Temp;Humidity;BMP_temperature;BMP_pressure;BME280_temperature;BME280_humidity;BME280_pressure;Samples;Min_cycle;Max_cycle;Signal;HPM_P1;HPM_P2
2021/10/22 00:01:36;;;;;;;11.18;3.88;;;;;;;;;;4953520;28;20101;-60
2021/10/22 00:04:02;;;;;;;4.47;1.33;;;;;;;;;;4955311;28;20043;-61
2021/10/22 00:06:28;;;;;;;3.42;0.98;;;;;;;;;;4951315;28;20106;-60
2021/10/22 00:08:53;;;;;;;3.80;0.93;;;;;;;;;;4952874;28;20035;-57
2021/10/22 00:11:19;;;;;;;3.90;0.90;;;;;;;;;;4950358;28;20082;-59
2021/10/22 00:13:45;;;;;;;2.97;0.93;;;;;;;;;;4942345;28;20055;-59
2021/10/22 00:16:11;;;;;;;5.20;1.40;;;;;;;;;;4933448;28;20027;-59
2021/10/22 00:18:37;;;;;;;5.18;1.63;;;;;;;;;;4916363;29;20079;-59
2021/10/22 00:21:03;;;;;;;6.90;1.20;;;;;;;;;;4934793;28;20039;-59
2021/10/22 00:23:28;;;;;;;5.65;1.20;;;;;;;;;;4932962;29;20271;-59
2021/10/22 00:25:54;;;;;;;4.03;0.93;;;;;;;;;;4933433;29;20047;-57
2021/10/22 00:28:20;;;;;;;5.38;0.90;;;;;;;;;;4935987;29;20126;-58
2021/10/22 00:30:46;;;;;;;7.45;1.15;;;;;;;;;;4931948;28;20047;-59
2021/10/22 00:33:12;;;;;;;6.53;1.20;;;;;;;;;;4933065;28;20078;-59
2021/10/22 00:35:37;;;;;;;3.97;1.40;;;;;;;;;;4935716;28;20108;-59
2021/10/22 00:38:03;;;;;;;9.00;1.20;;;;;;;;;;4933748;29;20042;-59
2021/10/22 00:40:29;;;;;;;5.40;1.13;;;;;;;;;;4933945;28;20114;-55
2021/10/22 00:42:56;;;;;;;9.77;3.28;;;;;;;;;;4918684;29;20479;-59
2021/10/22 00:45:22;;;;;;;9.23;2.80;;;;;;;;;;4934318;29;20559;-58
2021/10/22 00:47:49;;;;;;;6.70;1.52;;;;;;;;;;4933790;28;20051;-59
2021/10/22 00:50:15;;;;;;;14.80;2.90;;;;;;;;;;4933649;29;20051;-57
2021/10/22 00:52:42;;;;;;;11.32;2.10;;;;;;;;;;4931605;29;20482;-58
2021/10/22 00:55:13;;;;;;;6.78;1.15;;;;;;;;;;4931503;28;20036;-57
2021/10/22 00:57:40;;;;;;;7.00;1.20;;;;;;;;;;4930750;29;20047;-56
2021/10/22 01:00:06;;;;;;;4.20;0.93;;;;;;;;;;4933826;28;20031;-58
2021/10/22 01:02:34;;;;;;;7.43;1.55;;;;;;;;;;4933011;29;20480;-59
2021/10/22 01:05:00;;;;;;;4.18;1.23;;;;;;;;;;4900291;29;20141;-56
2021/10/22 01:07:26;;;;;;;4.72;1.35;;;;;;;;;;4932134;29;20086;-58
2021/10/22 01:09:52;;;;;;;5.20;1.20;;;;;;;;;;4932742;28;20039;-58
2021/10/22 01:12:18;;;;;;;12.63;1.33;;;;;;;;;;4930170;28;20107;-56
2021/10/22 01:14:44;;;;;;;3.70;0.82;;;;;;;;;;4926843;28;20047;-58
2021/10/22 01:17:28;;;;;;;10.15;1.38;;;;;;;;;;4931817;28;20039;-59
2021/10/22 01:19:54;;;;;;;8.27;1.90;;;;;;;;;;4933527;28;20582;-60
2021/10/22 01:22:20;;;;;;;8.40;1.98;;;;;;;;;;4933920;29;20090;-58
2021/10/22 01:24:47;;;;;;;3.50;1.30;;;;;;;;;;4935694;29;20051;-59
2021/10/22 01:27:13;;;;;;;13.02;1.90;;;;;;;;;;4933224;29;20082;-58
2021/10/22 01:29:39;;;;;;;5.65;1.52;;;;;;;;;;4931892;29;20424;-58
2021/10/22 01:32:10;;;;;;;7.07;1.70;;;;;;;;;;4935041;29;20043;-61
2021/10/22 01:34:36;;;;;;;9.73;1.27;;;;;;;;;;4925073;28;20043;-57
2021/10/22 01:37:02;;;;;;;10.60;2.00;;;;;;;;;;4940567;29;20054;-60
2021/10/22 01:39:28;;;;;;;6.70;1.80;;;;;;;;;;4922955;29;20055;-59
2021/10/22 01:41:53;;;;;;;12.52;1.73;;;;;;;;;;4933851;29;20511;-62
2021/10/22 01:44:23;;;;;;;13.95;1.83;;;;;;;;;;4935205;28;20043;-59
2021/10/22 01:46:49;;;;;;;6.40;1.48;;;;;;;;;;4935160;29;20051;-59
2021/10/22 01:49:15;;;;;;;5.45;1.08;;;;;;;;;;4931421;29;20039;-59
2021/10/22 01:51:41;;;;;;;10.95;1.38;;;;;;;;;;4932509;29;20378;-57
2021/10/22 01:54:07;;;;;;;15.48;2.80;;;;;;;;;;4932734;29;20937;-58
2021/10/22 01:56:33;;;;;;;6.70;2.05;;;;;;;;;;4932206;29;20051;-59
2021/10/22 01:58:59;;;;;;;6.90;1.40;;;;;;;;;;4933262;29;20050;-58
2021/10/22 02:01:25;;;;;;;6.38;1.25;;;;;;;;;;4931016;29;20736;-58
2021/10/22 02:03:51;;;;;;;8.90;1.67;;;;;;;;;;4932048;29;20102;-58
2021/10/22 02:06:17;;;;;;;9.05;1.40;;;;;;;;;;4931901;29;20103;-55
2021/10/22 02:08:43;;;;;;;9.77;1.50;;;;;;;;;;4930458;28;20133;-58
2021/10/22 02:11:09;;;;;;;9.40;1.63;;;;;;;;;;4933349;29;20065;-58
2021/10/22 02:13:35;;;;;;;9.73;1.35;;;;;;;;;;4937570;28;20508;-56
2021/10/22 02:16:01;;;;;;;9.73;1.63;;;;;;;;;;4951801;28;20043;-58
2021/10/22 02:18:27;;;;;;;7.10;1.75;;;;;;;;;;4949796;28;20594;-59
2021/10/22 02:20:53;;;;;;;5.57;1.67;;;;;;;;;;4952605;28;20041;-58
2021/10/22 02:23:19;;;;;;;7.95;1.90;;;;;;;;;;4950434;28;20093;-57
2021/10/22 02:25:45;;;;;;;6.57;1.63;;;;;;;;;;4952486;28;20047;-59
2021/10/22 02:28:11;;;;;;;10.60;1.95;;;;;;;;;;4952143;28;20580;-59
2021/10/22 02:30:37;;;;;;;8.77;2.08;;;;;;;;;;4950884;28;20043;-59
2021/10/22 02:33:03;;;;;;;7.35;1.70;;;;;;;;;;4954036;28;20038;-59
2021/10/22 02:35:28;;;;;;;14.25;2.25;;;;;;;;;;4955805;28;20466;-57
2021/10/22 02:37:55;;;;;;;11.57;1.83;;;;;;;;;;4956104;28;20035;-60
2021/10/22 02:40:20;;;;;;;7.03;2.05;;;;;;;;;;4964528;28;20050;-60
2021/10/22 02:42:46;;;;;;;11.07;2.80;;;;;;;;;;4976313;28;20054;-58
2021/10/22 02:45:12;;;;;;;8.30;2.10;;;;;;;;;;4978780;28;20039;-58
2021/10/22 02:47:38;;;;;;;9.32;1.88;;;;;;;;;;4982668;28;20046;-58
2021/10/22 02:50:04;;;;;;;6.43;2.03;;;;;;;;;;4980832;28;20070;-60
2021/10/22 02:52:30;;;;;;;6.15;2.30;;;;;;;;;;4968240;28;20122;-57
2021/10/22 02:54:57;;;;;;;19.02;2.65;;;;;;;;;;4963112;28;20166;-58
2021/10/22 02:57:23;;;;;;;6.78;2.28;;;;;;;;;;4957338;28;20133;-54
2021/10/22 02:59:49;;;;;;;10.80;2.22;;;;;;;;;;4960043;28;20213;-58
2021/10/22 03:02:14;;;;;;;9.13;1.67;;;;;;;;;;4957658;28;21554;-55
2021/10/22 03:04:40;;;;;;;6.43;1.92;;;;;;;;;;4970469;28;20058;-57
2021/10/22 03:07:06;;;;;;;8.32;2.55;;;;;;;;;;4957015;28;20169;-57
2021/10/22 03:09:32;;;;;;;7.70;2.20;;;;;;;;;;4955569;28;20074;-55
2021/10/22 03:11:58;;;;;;;8.52;2.20;;;;;;;;;;4956968;28;20042;-57
2021/10/22 03:14:24;;;;;;;7.93;2.15;;;;;;;;;;4956685;28;20043;-55
2021/10/22 03:16:49;;;;;;;10.32;2.53;;;;;;;;;;4969943;28;20071;-57
2021/10/22 03:19:15;;;;;;;7.32;2.03;;;;;;;;;;4956495;28;20043;-56
2021/10/22 03:21:41;;;;;;;10.30;2.15;;;;;;;;;;4955257;28;20103;-57
2021/10/22 03:24:09;;;;;;;5.18;2.10;;;;;;;;;;4958245;28;20134;-58
2021/10/22 03:26:36;;;;;;;14.00;2.20;;;;;;;;;;4954010;28;20081;-53
2021/10/22 03:29:02;;;;;;;10.18;2.08;;;;;;;;;;4955339;28;20036;-56
2021/10/22 03:31:28;;;;;;;9.05;2.03;;;;;;;;;;4952341;28;20046;-56
2021/10/22 03:33:54;;;;;;;6.63;2.00;;;;;;;;;;4956471;28;20138;-56
2021/10/22 03:36:20;;;;;;;8.18;2.13;;;;;;;;;;4955810;28;20039;-57
2021/10/22 03:38:46;;;;;;;8.90;1.98;;;;;;;;;;4955208;28;20861;-56
2021/10/22 03:41:12;;;;;;;5.65;1.80;;;;;;;;;;4956585;28;20039;-57
2021/10/22 03:43:38;;;;;;;6.70;1.67;;;;;;;;;;4956768;28;21102;-58
2021/10/22 03:46:04;;;;;;;6.13;2.08;;;;;;;;;;4959242;28;20436;-59
2021/10/22 03:48:30;;;;;;;12.15;1.92;;;;;;;;;;4956173;28;20047;-58
2021/10/22 03:50:56;;;;;;;15.32;2.13;;;;;;;;;;4955782;28;20493;-58
2021/10/22 03:53:22;;;;;;;8.65;2.10;;;;;;;;;;4952540;28;20059;-55
2021/10/22 03:55:48;;;;;;;10.00;1.60;;;;;;;;;;4954549;28;20058;-57
2021/10/22 03:58:14;;;;;;;9.98;1.83;;;;;;;;;;4953928;28;20035;-56
2021/10/22 04:00:40;;;;;;;10.13;1.85;;;;;;;;;;4951328;28;20046;-58
2021/10/22 04:03:06;;;;;;;11.18;1.83;;;;;;;;;;4952131;28;20097;-55
2021/10/22 04:05:33;;;;;;;8.48;1.75;;;;;;;;;;4950092;28;20051;-57
2021/10/22 04:07:59;;;;;;;14.07;2.40;;;;;;;;;;4952817;28;20447;-55
2021/10/22 04:10:25;;;;;;;11.43;2.25;;;;;;;;;;4953691;28;20051;-58
2021/10/22 04:12:51;;;;;;;5.72;1.60;;;;;;;;;;4952815;28;20034;-57
2021/10/22 04:15:17;;;;;;;9.38;2.15;;;;;;;;;;4954361;28;20042;-58
2021/10/22 04:17:43;;;;;;;11.00;2.38;;;;;;;;;;4952849;28;20050;-58
2021/10/22 04:20:09;;;;;;;11.82;1.98;;;;;;;;;;4954593;28;20077;-56
2021/10/22 04:22:35;;;;;;;8.65;1.73;;;;;;;;;;4951468;28;20043;-59
2021/10/22 04:25:01;;;;;;;5.80;1.60;;;;;;;;;;4951759;28;20055;-59
2021/10/22 04:27:32;;;;;;;7.20;2.03;;;;;;;;;;4950951;28;20059;-57
2021/10/22 04:30:00;;;;;;;9.38;1.88;;;;;;;;;;4952844;28;20450;-57
2021/10/22 04:32:25;;;;;;;17.50;2.58;;;;;;;;;;4951309;28;20039;-56
2021/10/22 04:34:51;;;;;;;11.70;2.30;;;;;;;;;;4949900;28;20042;-57
2021/10/22 04:37:29;;;;;;;6.45;1.73;;;;;;;;;;4950884;28;20078;-59
2021/10/22 04:42:40;;;;;;;12.70;2.13;;;;;;;;;;4950701;28;20443;-57
2021/10/22 04:45:07;;;;;;;6.63;2.15;;;;;;;;;;4949746;28;20097;-58
2021/10/22 04:47:33;;;;;;;8.77;2.83;;;;;;;;;;4950151;28;20483;-58
2021/10/22 04:50:00;;;;;;;8.80;2.00;;;;;;;;;;4965052;28;20074;-57
2021/10/22 04:52:26;;;;;;;8.00;2.13;;;;;;;;;;4950410;28;20661;-56
2021/10/22 04:54:52;;;;;;;9.20;1.95;;;;;;;;;;4950191;28;20046;-58
2021/10/22 04:57:18;;;;;;;11.25;1.98;;;;;;;;;;4953251;28;20039;-59
2021/10/22 04:59:44;;;;;;;6.22;1.67;;;;;;;;;;4952299;28;20039;-60
2021/10/22 05:02:09;;;;;;;8.43;1.98;;;;;;;;;;4954113;28;20043;-58
2021/10/22 05:04:35;;;;;;;5.10;2.22;;;;;;;;;;4949171;28;20047;-59
2021/10/22 05:07:02;;;;;;;7.63;1.98;;;;;;;;;;4950235;28;20034;-59
2021/10/22 05:09:28;;;;;;;13.30;2.30;;;;;;;;;;4951046;28;20577;-59
2021/10/22 05:11:54;;;;;;;8.77;2.17;;;;;;;;;;4950997;28;20043;-59
2021/10/22 05:14:20;;;;;;;7.97;2.25;;;;;;;;;;4949993;28;20094;-58
2021/10/22 05:16:45;;;;;;;7.28;1.67;;;;;;;;;;4950731;28;20089;-58
2021/10/22 05:19:11;;;;;;;6.00;1.65;;;;;;;;;;4950254;28;20038;-58
2021/10/22 05:21:37;;;;;;;8.85;2.47;;;;;;;;;;4949586;28;21845;-57
2021/10/22 05:24:03;;;;;;;7.57;2.00;;;;;;;;;;4950788;28;20039;-56
2021/10/22 05:26:29;;;;;;;10.93;2.13;;;;;;;;;;4948991;28;20134;-58
2021/10/22 05:28:55;;;;;;;13.05;2.00;;;;;;;;;;4950840;28;20491;-59
2021/10/22 05:31:20;;;;;;;10.82;2.40;;;;;;;;;;4951892;28;20066;-57
2021/10/22 05:33:46;;;;;;;4.53;1.55;;;;;;;;;;4950597;28;20043;-59
2021/10/22 05:36:12;;;;;;;17.55;2.25;;;;;;;;;;4951576;28;20535;-56
2021/10/22 05:38:38;;;;;;;8.52;2.30;;;;;;;;;;4951085;28;20051;-59
2021/10/22 05:41:04;;;;;;;7.45;2.38;;;;;;;;;;4951519;28;20032;-58
2021/10/22 05:43:30;;;;;;;10.82;2.10;;;;;;;;;;4949840;28;20055;-58
2021/10/22 05:45:56;;;;;;;8.23;2.08;;;;;;;;;;4950810;28;20520;-56
2021/10/22 05:48:22;;;;;;;4.43;2.00;;;;;;;;;;4950107;28;20097;-57
2021/10/22 05:50:48;;;;;;;10.70;2.83;;;;;;;;;;4951283;28;20051;-55
2021/10/22 05:53:15;;;;;;;7.03;2.28;;;;;;;;;;4953939;28;20141;-59
2021/10/22 05:55:41;;;;;;;14.90;2.63;;;;;;;;;;4953923;28;20102;-58
2021/10/22 05:58:07;;;;;;;5.97;2.00;;;;;;;;;;4953773;28;20039;-58
2021/10/22 06:00:32;;;;;;;14.15;2.35;;;;;;;;;;4952302;28;20118;-59
2021/10/22 06:02:58;;;;;;;8.80;2.05;;;;;;;;;;4953239;28;20086;-56
2021/10/22 06:05:24;;;;;;;12.05;2.20;;;;;;;;;;4954734;28;20662;-56
2021/10/22 06:07:50;;;;;;;6.93;2.03;;;;;;;;;;4957411;28;20861;-57
2021/10/22 06:10:16;;;;;;;8.43;2.10;;;;;;;;;;4955668;28;20086;-57
2021/10/22 06:12:42;;;;;;;8.55;2.05;;;;;;;;;;4953195;28;20085;-58
2021/10/22 06:15:08;;;;;;;9.95;2.17;;;;;;;;;;4954938;28;20132;-58
2021/10/22 06:17:33;;;;;;;10.27;2.13;;;;;;;;;;4954014;28;20046;-57
2021/10/22 06:20:07;;;;;;;11.85;2.17;;;;;;;;;;4955018;28;20121;-58
2021/10/22 06:22:50;;;;;;;8.35;2.22;;;;;;;;;;4955955;28;20043;-57
2021/10/22 06:25:16;;;;;;;12.35;2.33;;;;;;;;;;4955927;28;20055;-55
2021/10/22 06:27:42;;;;;;;12.35;2.08;;;;;;;;;;4954584;28;20461;-55
2021/10/22 06:30:08;;;;;;;10.73;2.10;;;;;;;;;;4956157;28;20492;-55
2021/10/22 06:32:34;;;;;;;4.80;1.90;;;;;;;;;;4955444;28;20039;-56
2021/10/22 06:35:00;;;;;;;12.77;2.47;;;;;;;;;;4954642;28;20496;-57
2021/10/22 06:37:26;;;;;;;10.20;2.55;;;;;;;;;;4951796;28;20077;-57
2021/10/22 06:39:52;;;;;;;14.55;2.60;;;;;;;;;;4956501;28;20031;-55
2021/10/22 06:42:18;;;;;;;7.25;2.28;;;;;;;;;;4955618;28;20039;-58
2021/10/22 06:44:44;;;;;;;14.02;2.42;;;;;;;;;;4955178;28;20058;-58
2021/10/22 06:47:10;;;;;;;13.88;2.30;;;;;;;;;;4956476;28;20109;-56
2021/10/22 06:49:36;;;;;;;12.18;2.33;;;;;;;;;;4955474;28;20061;-56
2021/10/22 06:52:01;;;;;;;9.32;2.63;;;;;;;;;;4954605;28;20068;-56
2021/10/22 06:54:27;;;;;;;4.68;2.30;;;;;;;;;;4955294;28;20050;-57
2021/10/22 06:56:54;;;;;;;9.02;2.13;;;;;;;;;;4953401;28;20105;-61
2021/10/22 06:59:19;;;;;;;11.48;2.03;;;;;;;;;;4954555;28;20127;-56
2021/10/22 07:01:45;;;;;;;7.13;2.33;;;;;;;;;;4955021;28;20048;-59
2021/10/22 07:04:12;;;;;;;7.45;2.30;;;;;;;;;;4956356;28;20039;-57
2021/10/22 07:09:23;;;;;;;18.95;2.53;;;;;;;;;;4955443;28;20537;-55
2021/10/22 07:11:49;;;;;;;10.85;2.30;;;;;;;;;;4953089;28;20423;-59
2021/10/22 07:14:16;;;;;;;7.97;2.28;;;;;;;;;;4953667;28;20050;-58
2021/10/22 07:16:42;;;;;;;8.30;2.25;;;;;;;;;;4952830;28;20460;-56
2021/10/22 07:19:08;;;;;;;8.73;2.45;;;;;;;;;;4953762;28;20047;-57
2021/10/22 07:21:38;;;;;;;5.30;2.17;;;;;;;;;;4955133;28;20106;-56
2021/10/22 07:24:11;;;;;;;7.25;2.35;;;;;;;;;;4957729;28;20090;-56
2021/10/22 07:26:37;;;;;;;9.70;2.85;;;;;;;;;;4957908;28;20051;-57
2021/10/22 07:29:03;;;;;;;7.05;2.30;;;;;;;;;;4958522;28;20054;-58
2021/10/22 07:31:29;;;;;;;12.32;2.08;;;;;;;;;;4961452;28;20049;-57
2021/10/22 07:33:55;;;;;;;15.73;2.50;;;;;;;;;;4960634;28;20415;-56
2021/10/22 07:36:21;;;;;;;8.93;2.10;;;;;;;;;;4956905;28;20039;-56
2021/10/22 07:38:47;;;;;;;11.32;1.90;;;;;;;;;;4958644;28;20054;-57
2021/10/22 07:41:14;;;;;;;5.05;2.13;;;;;;;;;;4960543;28;20529;-58
2021/10/22 07:43:39;;;;;;;7.80;2.13;;;;;;;;;;4956257;28;20035;-56
2021/10/22 07:46:06;;;;;;;10.30;2.00;;;;;;;;;;4957032;28;20050;-58
2021/10/22 07:48:32;;;;;;;5.80;2.13;;;;;;;;;;4954074;28;20581;-55
2021/10/22 07:50:58;;;;;;;6.70;2.03;;;;;;;;;;4955103;28;20492;-57
2021/10/22 07:53:24;;;;;;;7.25;2.03;;;;;;;;;;4954850;28;20043;-54
2021/10/22 07:55:50;;;;;;;7.47;2.33;;;;;;;;;;4955250;28;20038;-55
2021/10/22 07:58:16;;;;;;;10.02;2.13;;;;;;;;;;4957500;28;20378;-58
2021/10/22 08:00:42;;;;;;;7.03;2.42;;;;;;;;;;4952611;28;20678;-57
2021/10/22 08:03:08;;;;;;;7.75;2.05;;;;;;;;;;4954977;28;20523;-58
2021/10/22 08:05:34;;;;;;;8.70;2.47;;;;;;;;;;4955101;28;20050;-57
2021/10/22 08:08:00;;;;;;;7.97;2.05;;;;;;;;;;4954319;28;20070;-59
2021/10/22 08:10:26;;;;;;;6.50;2.30;;;;;;;;;;4949080;28;20098;-57
2021/10/22 08:12:52;;;;;;;9.60;2.25;;;;;;;;;;4968488;28;20039;-59
2021/10/22 08:15:18;;;;;;;9.30;2.05;;;;;;;;;;4955183;28;20094;-55
2021/10/22 08:17:43;;;;;;;6.72;2.60;;;;;;;;;;4955520;28;20043;-58
2021/10/22 08:20:12;;;;;;;6.57;2.28;;;;;;;;;;4954897;28;20035;-58
2021/10/22 08:22:38;;;;;;;12.25;2.30;;;;;;;;;;4955519;28;20046;-57
2021/10/22 08:25:08;;;;;;;12.95;2.22;;;;;;;;;;4958156;28;20042;-56
2021/10/22 08:27:35;;;;;;;8.35;2.25;;;;;;;;;;4959472;28;20117;-58
2021/10/22 08:30:03;;;;;;;6.20;1.98;;;;;;;;;;4977549;28;20042;-58
2021/10/22 08:32:30;;;;;;;5.45;2.22;;;;;;;;;;4977870;28;20043;-57
2021/10/22 08:34:55;;;;;;;11.63;2.40;;;;;;;;;;4983249;28;20107;-59
2021/10/22 08:37:22;;;;;;;7.00;2.10;;;;;;;;;;4979991;28;20050;-58
2021/10/22 08:39:48;;;;;;;6.97;2.03;;;;;;;;;;4971202;28;20042;-56
2021/10/22 08:42:15;;;;;;;6.82;2.15;;;;;;;;;;4964098;28;20232;-57
2021/10/22 08:44:42;;;;;;;13.98;2.38;;;;;;;;;;4962433;28;20047;-58
2021/10/22 08:47:07;;;;;;;6.50;2.35;;;;;;;;;;4959224;28;20043;-56
2021/10/22 08:49:34;;;;;;;3.90;1.70;;;;;;;;;;4958708;28;20123;-58
2021/10/22 08:52:02;;;;;;;8.40;2.70;;;;;;;;;;4961448;28;20122;-56
2021/10/22 08:54:30;;;;;;;8.82;2.40;;;;;;;;;;4952787;28;20042;-56
2021/10/22 08:56:56;;;;;;;8.07;2.10;;;;;;;;;;4953848;28;20043;-55
2021/10/22 08:59:21;;;;;;;7.07;2.22;;;;;;;;;;4954963;28;20426;-57
2021/10/22 09:02:06;;;;;;;9.60;2.47;;;;;;;;;;4952899;28;20038;-57
2021/10/22 09:04:32;;;;;;;9.18;2.25;;;;;;;;;;4953331;28;20654;-58
2021/10/22 09:06:58;;;;;;;4.32;1.63;;;;;;;;;;4953087;28;20078;-55
2021/10/22 09:09:24;;;;;;;7.90;2.33;;;;;;;;;;4952883;28;20491;-56
2021/10/22 09:11:50;;;;;;;5.07;2.22;;;;;;;;;;4951962;28;20126;-57
2021/10/22 09:14:17;;;;;;;14.93;2.25;;;;;;;;;;4942374;28;20055;-57
2021/10/22 09:16:50;;;;;;;5.25;2.05;;;;;;;;;;4928725;28;20043;-56
2021/10/22 09:19:36;;;;;;;13.23;2.60;;;;;;;;;;4936846;28;20066;-58
2021/10/22 09:22:21;;;;;;;10.57;2.42;;;;;;;;;;4937484;28;20039;-55
2021/10/22 09:24:51;;;;;;;8.05;2.20;;;;;;;;;;4937034;28;20154;-58
2021/10/22 09:27:37;;;;;;;12.68;2.35;;;;;;;;;;4934382;28;20054;-52
2021/10/22 09:30:04;;;;;;;6.80;2.05;;;;;;;;;;4928073;28;20123;-58
2021/10/22 09:32:31;;;;;;;11.80;2.50;;;;;;;;;;4942010;28;20051;-60
2021/10/22 09:34:57;;;;;;;4.88;2.17;;;;;;;;;;4940472;28;20032;-58
2021/10/22 09:37:22;;;;;;;7.97;2.22;;;;;;;;;;4939723;28;20050;-58
2021/10/22 09:39:48;;;;;;;5.38;2.10;;;;;;;;;;4942778;28;20047;-58
2021/10/22 09:42:18;;;;;;;8.68;2.63;;;;;;;;;;4943675;28;20201;-57
2021/10/22 09:44:45;;;;;;;6.90;2.28;;;;;;;;;;4944785;28;20066;-58
2021/10/22 09:47:18;;;;;;;10.80;2.28;;;;;;;;;;4944348;28;20170;-58
2021/10/22 09:49:46;;;;;;;7.03;2.55;;;;;;;;;;4942072;28;20039;-57
2021/10/22 09:52:21;;;;;;;10.73;2.40;;;;;;;;;;4941307;28;20381;-57
2021/10/22 09:54:47;;;;;;;14.80;2.65;;;;;;;;;;4940598;28;20047;-57
2021/10/22 09:57:16;;;;;;;6.93;1.95;;;;;;;;;;4942148;28;20515;-56
2021/10/22 09:59:43;;;;;;;4.90;2.03;;;;;;;;;;4941639;28;20047;-57
2021/10/22 10:02:09;;;;;;;10.38;2.42;;;;;;;;;;4940252;28;20130;-58
2021/10/22 10:04:36;;;;;;;8.43;2.20;;;;;;;;;;4940120;28;20374;-56
2021/10/22 10:07:04;;;;;;;12.05;2.33;;;;;;;;;;4941378;28;20031;-55
2021/10/22 10:09:30;;;;;;;6.90;2.45;;;;;;;;;;4941564;28;20051;-58
2021/10/22 10:11:57;;;;;;;12.55;2.33;;;;;;;;;;4939818;28;20035;-56
2021/10/22 10:14:26;;;;;;;11.80;2.58;;;;;;;;;;4951613;28;20055;-56
2021/10/22 10:16:52;;;;;;;8.02;2.25;;;;;;;;;;4957254;28;20497;-57
2021/10/22 10:19:23;;;;;;;5.25;1.50;;;;;;;;;;4957072;28;20542;-58
2021/10/22 10:21:51;;;;;;;10.65;2.20;;;;;;;;;;4957121;28;20034;-57
2021/10/22 10:24:18;;;;;;;9.80;2.38;;;;;;;;;;4957490;28;20042;-56
2021/10/22 10:26:44;;;;;;;10.13;2.45;;;;;;;;;;4958301;28;20047;-55
2021/10/22 10:29:27;;;;;;;10.63;2.03;;;;;;;;;;4957812;28;20776;-54
2021/10/22 10:31:59;;;;;;;5.63;2.05;;;;;;;;;;4956988;28;20043;-56
2021/10/22 10:34:28;;;;;;;5.45;1.55;;;;;;;;;;4959178;28;20039;-56
2021/10/22 10:37:02;;;;;;;11.13;2.17;;;;;;;;;;4958476;28;20114;-55
2021/10/22 10:39:53;;;;;;;8.20;2.13;;;;;;;;;;4958166;28;20071;-58
2021/10/22 10:42:21;;;;;;;4.93;1.92;;;;;;;;;;4958295;28;20039;-58
2021/10/22 10:44:47;;;;;;;7.63;2.03;;;;;;;;;;4957281;28;20341;-57
2021/10/22 10:47:33;;;;;;;7.95;1.65;;;;;;;;;;4961074;28;20035;-58
2021/10/22 10:49:59;;;;;;;8.18;2.00;;;;;;;;;;4957257;28;20058;-57
2021/10/22 10:52:38;;;;;;;10.43;2.08;;;;;;;;;;4953986;28;20038;-56
2021/10/22 10:55:16;;;;;;;5.97;2.00;;;;;;;;;;4955385;28;20569;-58
2021/10/22 10:57:49;;;;;;;11.75;1.95;;;;;;;;;;4954250;28;20050;-56
2021/10/22 11:00:16;;;;;;;5.30;2.00;;;;;;;;;;4954763;28;20035;-57
2021/10/22 11:03:00;;;;;;;5.18;1.90;;;;;;;;;;4952778;28;20043;-57
2021/10/22 11:05:51;;;;;;;4.63;1.52;;;;;;;;;;4955157;28;20381;-53
2021/10/22 11:08:19;;;;;;;6.07;2.28;;;;;;;;;;4937748;28;20043;-57
2021/10/22 11:11:02;;;;;;;10.13;2.33;;;;;;;;;;4956800;28;20031;-59
2021/10/22 11:13:46;;;;;;;6.88;2.63;;;;;;;;;;4960909;28;20067;-59
2021/10/22 11:16:25;;;;;;;17.70;2.30;;;;;;;;;;4959802;28;20039;-57
2021/10/22 11:18:59;;;;;;;6.82;2.50;;;;;;;;;;4956650;28;20050;-57
2021/10/22 11:21:30;;;;;;;10.00;2.30;;;;;;;;;;4957288;28;20046;-57
2021/10/22 11:23:57;;;;;;;13.35;2.60;;;;;;;;;;4958570;28;20051;-57
2021/10/22 11:26:23;;;;;;;11.10;2.70;;;;;;;;;;4954267;28;20050;-58
2021/10/22 11:28:50;;;;;;;5.60;2.53;;;;;;;;;;4954385;28;21849;-59
2021/10/22 11:31:33;;;;;;;8.13;2.17;;;;;;;;;;4952916;28;20035;-57
2021/10/22 11:33:59;;;;;;;;;;;;;;;;;;4951489;28;20039;-58
2021/10/22 11:36:25;;;;;;;5.90;2.22;;;;;;;;;;4952441;28;19924;-58
2021/10/22 11:38:51;;;;;;;7.68;2.50;;;;;;;;;;4952039;28;20089;-59
2021/10/22 11:41:17;;;;;;;18.70;2.75;;;;;;;;;;4953919;28;20054;-58
2021/10/22 11:44:02;;;;;;;14.95;2.75;;;;;;;;;;4952521;28;20449;-58
2021/10/22 11:46:39;;;;;;;9.18;2.00;;;;;;;;;;4951776;28;20151;-58
2021/10/22 11:49:04;;;;;;;6.78;2.38;;;;;;;;;;4957315;28;20035;-55
2021/10/22 11:51:30;;;;;;;10.77;2.20;;;;;;;;;;4955387;28;20054;-57
2021/10/22 11:53:56;;;;;;;4.63;1.92;;;;;;;;;;4956036;28;20126;-56
2021/10/22 11:56:25;;;;;;;16.92;2.78;;;;;;;;;;4969925;28;20896;-57
2021/10/22 11:58:50;;;;;;;8.75;1.90;;;;;;;;;;4955538;28;20139;-59
2021/10/22 12:01:20;;;;;;;17.23;2.70;;;;;;;;;;4953382;28;20035;-57
2021/10/22 12:03:54;;;;;;;9.88;2.95;;;;;;;;;;4953027;28;20123;-58
2021/10/22 12:06:23;;;;;;;9.40;2.58;;;;;;;;;;4953775;28;20972;-58
2021/10/22 12:08:50;;;;;;;6.97;2.22;;;;;;;;;;4955666;28;20054;-59
2021/10/22 12:11:16;;;;;;;5.68;1.80;;;;;;;;;;4955384;28;20047;-60
2021/10/22 12:13:45;;;;;;;5.70;1.98;;;;;;;;;;4952992;28;20093;-58
2021/10/22 12:16:14;;;;;;;5.55;1.92;;;;;;;;;;4953712;28;20039;-58
2021/10/22 12:18:43;;;;;;;5.63;1.70;;;;;;;;;;4953026;28;20042;-55
2021/10/22 12:21:09;;;;;;;6.00;1.58;;;;;;;;;;4954491;28;20050;-60
2021/10/22 12:23:36;;;;;;;10.82;1.65;;;;;;;;;;4953787;28;20042;-58
2021/10/22 12:26:02;;;;;;;4.70;1.67;;;;;;;;;;4952996;28;20046;-60
2021/10/22 12:28:28;;;;;;;6.95;1.50;;;;;;;;;;4954645;28;20038;-59
2021/10/22 12:31:08;;;;;;;4.03;1.55;;;;;;;;;;4954511;28;20043;-57
2021/10/22 12:33:34;;;;;;;13.20;1.90;;;;;;;;;;4952442;28;20043;-56
2021/10/22 12:36:14;;;;;;;4.00;1.30;;;;;;;;;;4953523;28;20467;-57
2021/10/22 12:38:39;;;;;;;7.95;1.50;;;;;;;;;;4953919;28;20605;-59
2021/10/22 12:41:10;;;;;;;2.90;1.10;;;;;;;;;;4953502;28;20042;-57
2021/10/22 12:43:36;;;;;;;4.22;1.98;;;;;;;;;;4951636;28;20142;-59
2021/10/22 12:46:06;;;;;;;3.72;1.45;;;;;;;;;;4952321;28;20070;-60
2021/10/22 12:48:34;;;;;;;6.30;1.52;;;;;;;;;;4952400;28;21854;-57
2021/10/22 12:51:10;;;;;;;5.95;1.50;;;;;;;;;;4953245;28;20035;-58
2021/10/22 12:53:39;;;;;;;4.47;1.25;;;;;;;;;;4952221;28;20042;-58
2021/10/22 12:56:13;;;;;;;6.32;1.48;;;;;;;;;;4949942;28;20045;-58
2021/10/22 12:58:39;;;;;;;;;;;;;;;;;;4950277;28;20045;-58
2021/10/22 13:01:08;;;;;;;3.28;0.98;;;;;;;;;;4949967;28;19921;-59
2021/10/22 13:03:34;;;;;;;11.10;1.50;;;;;;;;;;4950420;28;20046;-56
2021/10/22 13:06:33;;;;;;;4.03;1.30;;;;;;;;;;4948073;28;20055;-56
2021/10/22 13:22:14;;;;;;;4.03;1.35;;;;;;;;;;4952394;28;20050;-58
2021/10/22 13:24:40;;;;;;;3.60;1.20;;;;;;;;;;4951364;28;20118;-58
2021/10/22 13:27:06;;;;;;;3.53;1.40;;;;;;;;;;4951905;28;21016;-59
2021/10/22 13:29:32;;;;;;;5.03;1.30;;;;;;;;;;4952673;28;20129;-58
2021/10/22 13:31:58;;;;;;;5.05;1.60;;;;;;;;;;4952886;28;20043;-59
2021/10/22 13:34:24;;;;;;;10.68;1.60;;;;;;;;;;4950730;28;20050;-58
2021/10/22 13:36:50;;;;;;;7.40;1.63;;;;;;;;;;4951779;28;20047;-59
2021/10/22 13:39:16;;;;;;;7.03;1.50;;;;;;;;;;4952662;28;20039;-59
2021/10/22 13:41:42;;;;;;;5.43;1.48;;;;;;;;;;4950390;28;20049;-58
2021/10/22 13:44:08;;;;;;;4.22;1.70;;;;;;;;;;4951117;28;20134;-58
2021/10/22 13:46:35;;;;;;;4.85;1.38;;;;;;;;;;4951966;28;20059;-57
2021/10/22 13:49:01;;;;;;;5.30;1.63;;;;;;;;;;4951374;28;20534;-58
2021/10/22 13:51:27;;;;;;;4.20;1.35;;;;;;;;;;4948890;28;21156;-58
2021/10/22 13:53:53;;;;;;;4.75;1.60;;;;;;;;;;4952863;28;20047;-58
2021/10/22 13:56:19;;;;;;;5.20;1.40;;;;;;;;;;4951771;28;20109;-58
2021/10/22 13:58:45;;;;;;;4.00;1.50;;;;;;;;;;4952534;28;20062;-59
2021/10/22 14:01:11;;;;;;;3.20;1.20;;;;;;;;;;4954484;28;20051;-57
2021/10/22 14:03:37;;;;;;;4.45;1.30;;;;;;;;;;4953292;28;20086;-55
2021/10/22 14:06:04;;;;;;;5.50;1.70;;;;;;;;;;4952186;28;20051;-57
2021/10/22 14:08:31;;;;;;;4.18;1.52;;;;;;;;;;4951873;28;20134;-58
2021/10/22 14:11:03;;;;;;;6.45;1.60;;;;;;;;;;4952955;28;20070;-58
2021/10/22 14:13:34;;;;;;;5.45;1.63;;;;;;;;;;4954535;28;20489;-59
2021/10/22 14:16:25;;;;;;;2.97;1.10;;;;;;;;;;4954333;28;20538;-54
2021/10/22 14:24:48;;;;;;;9.68;1.50;;;;;;;;;;4976708;28;20053;-60
2021/10/22 14:29:58;;;;;;;4.57;1.27;;;;;;;;;;4980161;28;20107;-58
2021/10/22 14:32:28;;;;;;;3.40;1.33;;;;;;;;;;4971116;28;20062;-55
2021/10/22 14:34:59;;;;;;;5.38;1.70;;;;;;;;;;4966237;28;20039;-58
2021/10/22 14:37:28;;;;;;;5.38;1.38;;;;;;;;;;4962672;28;20045;-55
2021/10/22 14:39:54;;;;;;;2.75;0.98;;;;;;;;;;4961618;28;20035;-57
2021/10/22 14:42:20;;;;;;;4.90;1.63;;;;;;;;;;4958908;28;20101;-57
2021/10/22 14:44:46;;;;;;;6.65;1.40;;;;;;;;;;4957555;28;20522;-59
2021/10/22 14:47:19;;;;;;;8.45;1.63;;;;;;;;;;4958541;28;20129;-58
2021/10/22 14:49:51;;;;;;;;;;;;;;;;;;4958099;28;20361;-57
2021/10/22 14:52:35;;;;;;;12.65;1.92;;;;;;;;;;4959217;28;19915;-59
2021/10/22 14:55:14;;;;;;;13.73;1.77;;;;;;;;;;4956637;28;20381;-59
2021/10/22 14:57:40;;;;;;;5.93;1.80;;;;;;;;;;4953564;28;20446;-63
2021/10/22 15:00:06;;;;;;;12.32;1.70;;;;;;;;;;4958753;28;20114;-55
2021/10/22 15:02:33;;;;;;;6.20;1.77;;;;;;;;;;4955903;28;20130;-58
2021/10/22 15:04:58;;;;;;;7.28;2.08;;;;;;;;;;4955704;28;20098;-59
2021/10/22 15:07:24;;;;;;;7.35;1.80;;;;;;;;;;4954119;28;20062;-56
2021/10/22 15:09:50;;;;;;;6.80;1.70;;;;;;;;;;4955005;28;20068;-56
2021/10/22 15:12:16;;;;;;;10.13;2.13;;;;;;;;;;4954844;28;20104;-57